Ursina, Pennsylvania
Current Conditions -  °F | °C
As of 2:30 AM on Thursday 18 Dec 2014 (Local Time) from K2G4 Reporting Station
Overcast Overcast  
Wind Chill:   Ceiling: 1200
Heat Index: 21°   Visibility: 10mi
Dew Point: 21°   Wind: 15mph
Humidity: 100%   Direction: 290°WNW
Pressure: 30.01"   Gusts: 23mph
Location:  39.82°N, 79.33°W
Report Text: K2G4 180730Z AUTO 29013G20KT 262V332 10SM OVC012 M06/M06 A3001 RMK AO1
Loading
Personal Weather Stations






























Interactive Weather Map New forecast layout! Learn more

10-Day Weather Forecast

Advertisements
Track Severe Weather on mobile